sensor_id;sensor_type;location;lat;lon;timestamp;P1;durP1;ratioP1;P2;durP2;ratioP2
5127;SDS011;2582;48.770;9.190;2022-10-31T00:00:49;11.87;;;5.43;;
5127;SDS011;2582;48.770;9.190;2022-10-31T00:03:15;8.13;;;4.83;;
5127;SDS011;2582;48.770;9.190;2022-10-31T00:05:43;9.80;;;4.50;;
5127;SDS011;2582;48.770;9.190;2022-10-31T00:08:10;7.93;;;5.00;;
5127;SDS011;2582;48.770;9.190;2022-10-31T00:10:39;5.37;;;4.90;;
5127;SDS011;2582;48.770;9.190;2022-10-31T00:13:06;9.30;;;4.30;;
5127;SDS011;2582;48.770;9.190;2022-10-31T00:15:35;8.07;;;4.63;;
5127;SDS011;2582;48.770;9.190;2022-10-31T00:18:03;7.27;;;4.60;;
5127;SDS011;2582;48.770;9.190;2022-10-31T00:20:29;8.57;;;4.33;;
5127;SDS011;2582;48.770;9.190;2022-10-31T00:22:59;9.03;;;4.33;;
5127;SDS011;2582;48.770;9.190;2022-10-31T00:25:26;8.70;;;4.70;;
5127;SDS011;2582;48.770;9.190;2022-10-31T00:27:52;7.63;;;4.63;;
5127;SDS011;2582;48.770;9.190;2022-10-31T00:30:18;8.30;;;5.10;;
5127;SDS011;2582;48.770;9.190;2022-10-31T00:32:43;6.40;;;4.30;;
5127;SDS011;2582;48.770;9.190;2022-10-31T00:35:09;6.43;;;4.50;;
5127;SDS011;2582;48.770;9.190;2022-10-31T00:37:34;8.60;;;5.07;;
5127;SDS011;2582;48.770;9.190;2022-10-31T00:40:00;8.00;;;5.00;;
5127;SDS011;2582;48.770;9.190;2022-10-31T00:42:26;5.00;;;4.50;;
5127;SDS011;2582;48.770;9.190;2022-10-31T00:44:51;5.77;;;4.77;;
5127;SDS011;2582;48.770;9.190;2022-10-31T00:47:17;6.80;;;4.47;;
5127;SDS011;2582;48.770;9.190;2022-10-31T00:49:43;4.50;;;4.10;;
5127;SDS011;2582;48.770;9.190;2022-10-31T00:52:08;6.90;;;5.03;;
5127;SDS011;2582;48.770;9.190;2022-10-31T00:54:34;8.20;;;4.90;;
5127;SDS011;2582;48.770;9.190;2022-10-31T00:56:59;6.07;;;4.77;;
5127;SDS011;2582;48.770;9.190;2022-10-31T00:59:25;6.17;;;4.17;;
5127;SDS011;2582;48.770;9.190;2022-10-31T01:01:50;8.50;;;5.00;;
5127;SDS011;2582;48.770;9.190;2022-10-31T01:04:16;5.63;;;4.60;;
5127;SDS011;2582;48.770;9.190;2022-10-31T01:06:41;6.73;;;5.10;;
5127;SDS011;2582;48.770;9.190;2022-10-31T01:09:07;7.67;;;5.47;;
5127;SDS011;2582;48.770;9.190;2022-10-31T01:11:33;8.57;;;4.40;;
5127;SDS011;2582;48.770;9.190;2022-10-31T01:13:58;7.33;;;4.53;;
5127;SDS011;2582;48.770;9.190;2022-10-31T01:16:24;9.60;;;5.40;;
5127;SDS011;2582;48.770;9.190;2022-10-31T01:18:51;7.07;;;5.00;;
5127;SDS011;2582;48.770;9.190;2022-10-31T01:21:18;10.70;;;4.87;;
5127;SDS011;2582;48.770;9.190;2022-10-31T01:23:46;9.13;;;4.53;;
5127;SDS011;2582;48.770;9.190;2022-10-31T01:26:13;8.67;;;5.83;;
5127;SDS011;2582;48.770;9.190;2022-10-31T01:28:47;7.60;;;4.50;;
5127;SDS011;2582;48.770;9.190;2022-10-31T01:31:14;9.83;;;5.90;;
5127;SDS011;2582;48.770;9.190;2022-10-31T01:33:41;5.93;;;4.77;;
5127;SDS011;2582;48.770;9.190;2022-10-31T01:36:11;6.70;;;4.80;;
5127;SDS011;2582;48.770;9.190;2022-10-31T01:38:37;11.57;;;4.97;;
5127;SDS011;2582;48.770;9.190;2022-10-31T01:41:03;9.10;;;5.17;;
5127;SDS011;2582;48.770;9.190;2022-10-31T01:43:42;5.83;;;5.23;;
5127;SDS011;2582;48.770;9.190;2022-10-31T01:46:21;7.23;;;5.23;;
5127;SDS011;2582;48.770;9.190;2022-10-31T01:48:50;9.63;;;5.40;;
5127;SDS011;2582;48.770;9.190;2022-10-31T01:51:18;7.67;;;4.50;;
5127;SDS011;2582;48.770;9.190;2022-10-31T01:53:48;10.13;;;5.37;;
5127;SDS011;2582;48.770;9.190;2022-10-31T01:56:15;8.63;;;5.47;;
5127;SDS011;2582;48.770;9.190;2022-10-31T01:58:42;9.03;;;5.50;;
5127;SDS011;2582;48.770;9.190;2022-10-31T02:01:10;7.73;;;4.97;;
5127;SDS011;2582;48.770;9.190;2022-10-31T02:03:37;7.87;;;5.10;;
5127;SDS011;2582;48.770;9.190;2022-10-31T02:06:03;8.77;;;5.33;;
5127;SDS011;2582;48.770;9.190;2022-10-31T02:08:34;7.50;;;4.40;;
5127;SDS011;2582;48.770;9.190;2022-10-31T02:11:02;7.67;;;3.73;;
5127;SDS011;2582;48.770;9.190;2022-10-31T02:13:28;6.20;;;4.83;;
5127;SDS011;2582;48.770;9.190;2022-10-31T02:15:55;8.77;;;4.53;;
5127;SDS011;2582;48.770;9.190;2022-10-31T02:18:22;6.37;;;4.60;;
5127;SDS011;2582;48.770;9.190;2022-10-31T02:26:17;5.60;;;4.30;;
5127;SDS011;2582;48.770;9.190;2022-10-31T02:31:56;7.60;;;5.70;;
5127;SDS011;2582;48.770;9.190;2022-10-31T02:34:43;6.63;;;4.67;;
5127;SDS011;2582;48.770;9.190;2022-10-31T02:40:27;8.83;;;5.30;;
5127;SDS011;2582;48.770;9.190;2022-10-31T02:43:09;9.17;;;4.80;;
5127;SDS011;2582;48.770;9.190;2022-10-31T02:45:50;6.50;;;5.30;;
5127;SDS011;2582;48.770;9.190;2022-10-31T02:48:26;7.73;;;5.57;;
5127;SDS011;2582;48.770;9.190;2022-10-31T02:50:55;7.20;;;5.00;;
5127;SDS011;2582;48.770;9.190;2022-10-31T02:53:24;6.10;;;4.70;;
5127;SDS011;2582;48.770;9.190;2022-10-31T02:55:59;5.57;;;4.87;;
5127;SDS011;2582;48.770;9.190;2022-10-31T02:58:32;10.83;;;6.10;;
5127;SDS011;2582;48.770;9.190;2022-10-31T03:07:13;8.73;;;5.50;;
5127;SDS011;2582;48.770;9.190;2022-10-31T03:09:49;8.03;;;6.20;;
5127;SDS011;2582;48.770;9.190;2022-10-31T03:20:45;6.20;;;4.57;;
5127;SDS011;2582;48.770;9.190;2022-10-31T03:23:17;7.30;;;5.33;;
5127;SDS011;2582;48.770;9.190;2022-10-31T03:25:44;7.20;;;5.77;;
5127;SDS011;2582;48.770;9.190;2022-10-31T03:28:12;8.43;;;6.27;;
5127;SDS011;2582;48.770;9.190;2022-10-31T03:30:40;6.70;;;6.03;;
5127;SDS011;2582;48.770;9.190;2022-10-31T03:33:09;7.90;;;5.30;;
5127;SDS011;2582;48.770;9.190;2022-10-31T03:35:41;8.27;;;6.03;;
5127;SDS011;2582;48.770;9.190;2022-10-31T03:38:09;9.40;;;6.33;;
5127;SDS011;2582;48.770;9.190;2022-10-31T03:40:36;7.10;;;5.30;;
5127;SDS011;2582;48.770;9.190;2022-10-31T03:43:05;7.90;;;5.60;;
5127;SDS011;2582;48.770;9.190;2022-10-31T03:45:36;6.23;;;5.57;;
5127;SDS011;2582;48.770;9.190;2022-10-31T03:48:08;7.13;;;5.17;;
5127;SDS011;2582;48.770;9.190;2022-10-31T03:50:38;8.03;;;5.07;;
5127;SDS011;2582;48.770;9.190;2022-10-31T03:53:19;7.57;;;5.57;;
5127;SDS011;2582;48.770;9.190;2022-10-31T03:55:52;8.33;;;5.50;;
5127;SDS011;2582;48.770;9.190;2022-10-31T03:58:27;5.53;;;4.70;;
5127;SDS011;2582;48.770;9.190;2022-10-31T04:01:17;6.33;;;5.10;;
5127;SDS011;2582;48.770;9.190;2022-10-31T04:03:44;7.87;;;5.63;;
5127;SDS011;2582;48.770;9.190;2022-10-31T04:06:11;8.30;;;6.17;;
5127;SDS011;2582;48.770;9.190;2022-10-31T04:08:41;8.10;;;6.03;;
5127;SDS011;2582;48.770;9.190;2022-10-31T04:11:10;5.63;;;5.03;;
5127;SDS011;2582;48.770;9.190;2022-10-31T04:13:38;7.27;;;5.00;;
5127;SDS011;2582;48.770;9.190;2022-10-31T04:16:07;6.67;;;5.50;;
5127;SDS011;2582;48.770;9.190;2022-10-31T04:18:33;6.73;;;6.00;;
5127;SDS011;2582;48.770;9.190;2022-10-31T04:21:00;7.50;;;5.70;;
5127;SDS011;2582;48.770;9.190;2022-10-31T04:23:27;5.53;;;4.87;;
5127;SDS011;2582;48.770;9.190;2022-10-31T04:25:53;6.60;;;5.47;;
5127;SDS011;2582;48.770;9.190;2022-10-31T04:28:19;6.70;;;5.27;;
5127;SDS011;2582;48.770;9.190;2022-10-31T04:30:44;8.17;;;5.27;;
5127;SDS011;2582;48.770;9.190;2022-10-31T04:33:10;7.40;;;5.10;;
5127;SDS011;2582;48.770;9.190;2022-10-31T04:35:36;8.60;;;5.30;;
5127;SDS011;2582;48.770;9.190;2022-10-31T04:38:01;8.27;;;6.13;;
5127;SDS011;2582;48.770;9.190;2022-10-31T04:40:27;8.63;;;5.73;;
5127;SDS011;2582;48.770;9.190;2022-10-31T04:42:52;8.43;;;5.90;;
5127;SDS011;2582;48.770;9.190;2022-10-31T04:45:18;7.10;;;5.23;;
5127;SDS011;2582;48.770;9.190;2022-10-31T04:47:43;8.60;;;5.03;;
5127;SDS011;2582;48.770;9.190;2022-10-31T04:50:09;6.77;;;4.80;;
5127;SDS011;2582;48.770;9.190;2022-10-31T04:52:41;8.97;;;5.10;;
5127;SDS011;2582;48.770;9.190;2022-10-31T04:55:08;10.10;;;5.60;;
5127;SDS011;2582;48.770;9.190;2022-10-31T04:57:41;6.50;;;5.30;;
5127;SDS011;2582;48.770;9.190;2022-10-31T05:00:08;8.30;;;5.80;;
5127;SDS011;2582;48.770;9.190;2022-10-31T05:02:34;11.07;;;6.00;;
5127;SDS011;2582;48.770;9.190;2022-10-31T05:05:07;10.33;;;5.30;;
5127;SDS011;2582;48.770;9.190;2022-10-31T05:07:33;10.90;;;4.90;;
5127;SDS011;2582;48.770;9.190;2022-10-31T05:09:58;6.87;;;5.10;;
5127;SDS011;2582;48.770;9.190;2022-10-31T05:12:24;6.20;;;5.47;;
5127;SDS011;2582;48.770;9.190;2022-10-31T05:14:49;6.80;;;4.67;;
5127;SDS011;2582;48.770;9.190;2022-10-31T05:17:15;6.70;;;5.00;;
5127;SDS011;2582;48.770;9.190;2022-10-31T05:19:40;7.57;;;5.67;;
5127;SDS011;2582;48.770;9.190;2022-10-31T05:22:06;7.87;;;6.10;;
5127;SDS011;2582;48.770;9.190;2022-10-31T05:24:31;11.17;;;6.10;;
5127;SDS011;2582;48.770;9.190;2022-10-31T05:26:57;7.37;;;6.30;;
5127;SDS011;2582;48.770;9.190;2022-10-31T05:29:22;8.57;;;6.00;;
5127;SDS011;2582;48.770;9.190;2022-10-31T05:31:48;6.80;;;5.70;;
5127;SDS011;2582;48.770;9.190;2022-10-31T05:34:13;8.03;;;6.13;;
5127;SDS011;2582;48.770;9.190;2022-10-31T05:36:39;8.77;;;5.57;;
5127;SDS011;2582;48.770;9.190;2022-10-31T05:39:04;7.33;;;5.83;;
5127;SDS011;2582;48.770;9.190;2022-10-31T05:41:30;5.33;;;4.50;;
5127;SDS011;2582;48.770;9.190;2022-10-31T05:43:55;6.97;;;5.67;;
5127;SDS011;2582;48.770;9.190;2022-10-31T05:46:21;10.60;;;5.43;;
5127;SDS011;2582;48.770;9.190;2022-10-31T05:48:46;7.77;;;5.67;;
5127;SDS011;2582;48.770;9.190;2022-10-31T05:51:12;9.10;;;5.43;;
5127;SDS011;2582;48.770;9.190;2022-10-31T05:53:37;7.27;;;6.10;;
5127;SDS011;2582;48.770;9.190;2022-10-31T05:56:03;8.13;;;6.10;;
5127;SDS011;2582;48.770;9.190;2022-10-31T05:58:29;8.30;;;5.83;;
5127;SDS011;2582;48.770;9.190;2022-10-31T06:00:54;7.60;;;5.70;;
5127;SDS011;2582;48.770;9.190;2022-10-31T06:03:20;10.80;;;5.90;;
5127;SDS011;2582;48.770;9.190;2022-10-31T06:05:45;9.00;;;6.23;;
5127;SDS011;2582;48.770;9.190;2022-10-31T06:08:11;8.03;;;5.60;;
5127;SDS011;2582;48.770;9.190;2022-10-31T06:10:36;9.07;;;6.30;;
5127;SDS011;2582;48.770;9.190;2022-10-31T06:13:02;12.37;;;6.00;;
5127;SDS011;2582;48.770;9.190;2022-10-31T06:15:27;6.30;;;4.87;;
5127;SDS011;2582;48.770;9.190;2022-10-31T06:17:59;10.00;;;7.37;;
5127;SDS011;2582;48.770;9.190;2022-10-31T06:20:27;6.93;;;5.07;;
5127;SDS011;2582;48.770;9.190;2022-10-31T06:22:53;6.40;;;5.70;;
5127;SDS011;2582;48.770;9.190;2022-10-31T06:25:18;8.53;;;5.77;;
5127;SDS011;2582;48.770;9.190;2022-10-31T06:27:44;11.43;;;6.90;;
5127;SDS011;2582;48.770;9.190;2022-10-31T06:30:09;8.20;;;5.60;;
5127;SDS011;2582;48.770;9.190;2022-10-31T06:32:35;7.50;;;6.80;;
5127;SDS011;2582;48.770;9.190;2022-10-31T06:35:01;11.00;;;6.10;;
5127;SDS011;2582;48.770;9.190;2022-10-31T06:37:26;7.43;;;6.00;;
5127;SDS011;2582;48.770;9.190;2022-10-31T06:39:52;11.60;;;6.37;;
5127;SDS011;2582;48.770;9.190;2022-10-31T06:42:17;8.00;;;6.20;;
5127;SDS011;2582;48.770;9.190;2022-10-31T06:44:43;7.70;;;6.77;;
5127;SDS011;2582;48.770;9.190;2022-10-31T06:47:08;8.83;;;5.73;;
5127;SDS011;2582;48.770;9.190;2022-10-31T06:49:34;8.03;;;5.40;;
5127;SDS011;2582;48.770;9.190;2022-10-31T06:51:59;9.20;;;6.33;;
5127;SDS011;2582;48.770;9.190;2022-10-31T06:54:25;7.83;;;5.20;;
5127;SDS011;2582;48.770;9.190;2022-10-31T06:56:51;8.03;;;6.50;;
5127;SDS011;2582;48.770;9.190;2022-10-31T06:59:17;9.90;;;7.00;;
5127;SDS011;2582;48.770;9.190;2022-10-31T07:01:42;7.17;;;5.97;;
5127;SDS011;2582;48.770;9.190;2022-10-31T07:04:09;8.30;;;5.77;;
5127;SDS011;2582;48.770;9.190;2022-10-31T07:06:35;7.20;;;6.17;;
5127;SDS011;2582;48.770;9.190;2022-10-31T07:09:01;14.37;;;6.40;;
5127;SDS011;2582;48.770;9.190;2022-10-31T07:11:26;8.93;;;6.47;;
5127;SDS011;2582;48.770;9.190;2022-10-31T07:13:52;6.37;;;5.43;;
5127;SDS011;2582;48.770;9.190;2022-10-31T07:16:17;9.60;;;5.70;;
5127;SDS011;2582;48.770;9.190;2022-10-31T07:18:43;6.67;;;5.13;;
5127;SDS011;2582;48.770;9.190;2022-10-31T07:21:08;8.00;;;5.70;;
5127;SDS011;2582;48.770;9.190;2022-10-31T07:23:34;8.90;;;6.60;;
5127;SDS011;2582;48.770;9.190;2022-10-31T07:25:59;9.93;;;5.87;;
5127;SDS011;2582;48.770;9.190;2022-10-31T07:28:25;10.20;;;6.10;;
5127;SDS011;2582;48.770;9.190;2022-10-31T07:30:52;8.80;;;6.37;;
5127;SDS011;2582;48.770;9.190;2022-10-31T07:33:18;9.73;;;6.40;;
5127;SDS011;2582;48.770;9.190;2022-10-31T07:35:44;7.57;;;6.20;;
5127;SDS011;2582;48.770;9.190;2022-10-31T07:38:10;9.00;;;6.80;;
5127;SDS011;2582;48.770;9.190;2022-10-31T07:40:37;7.40;;;6.20;;
5127;SDS011;2582;48.770;9.190;2022-10-31T07:43:03;8.53;;;6.07;;
5127;SDS011;2582;48.770;9.190;2022-10-31T07:45:29;7.83;;;5.40;;
5127;SDS011;2582;48.770;9.190;2022-10-31T07:47:57;6.97;;;6.27;;
5127;SDS011;2582;48.770;9.190;2022-10-31T07:50:27;6.57;;;5.97;;
5127;SDS011;2582;48.770;9.190;2022-10-31T07:53:01;8.00;;;6.13;;
5127;SDS011;2582;48.770;9.190;2022-10-31T07:55:31;12.57;;;6.07;;
5127;SDS011;2582;48.770;9.190;2022-10-31T08:00:24;7.50;;;6.70;;
5127;SDS011;2582;48.770;9.190;2022-10-31T08:03:23;9.13;;;7.30;;
5127;SDS011;2582;48.770;9.190;2022-10-31T08:05:43;9.67;;;6.67;;
5127;SDS011;2582;48.770;9.190;2022-10-31T08:08:12;11.30;;;6.97;;
5127;SDS011;2582;48.770;9.190;2022-10-31T08:10:38;10.47;;;7.30;;
5127;SDS011;2582;48.770;9.190;2022-10-31T08:13:06;17.63;;;10.73;;
5127;SDS011;2582;48.770;9.190;2022-10-31T08:15:34;13.63;;;10.73;;
5127;SDS011;2582;48.770;9.190;2022-10-31T08:18:03;19.60;;;11.70;;
5127;SDS011;2582;48.770;9.190;2022-10-31T08:20:29;13.13;;;9.80;;
5127;SDS011;2582;48.770;9.190;2022-10-31T08:22:58;11.70;;;7.77;;
5127;SDS011;2582;48.770;9.190;2022-10-31T08:25:30;13.60;;;7.77;;
5127;SDS011;2582;48.770;9.190;2022-10-31T08:27:56;8.60;;;6.90;;
5127;SDS011;2582;48.770;9.190;2022-10-31T08:30:23;7.70;;;6.90;;
5127;SDS011;2582;48.770;9.190;2022-10-31T08:33:04;10.00;;;5.50;;
5127;SDS011;2582;48.770;9.190;2022-10-31T08:35:31;6.83;;;6.13;;
5127;SDS011;2582;48.770;9.190;2022-10-31T08:37:58;9.10;;;7.60;;
5127;SDS011;2582;48.770;9.190;2022-10-31T08:40:24;10.80;;;6.20;;
5127;SDS011;2582;48.770;9.190;2022-10-31T08:42:57;11.70;;;6.80;;
5127;SDS011;2582;48.770;9.190;2022-10-31T08:45:27;10.63;;;8.47;;
5127;SDS011;2582;48.770;9.190;2022-10-31T08:48:03;8.67;;;7.40;;
5127;SDS011;2582;48.770;9.190;2022-10-31T08:50:31;10.07;;;7.97;;
5127;SDS011;2582;48.770;9.190;2022-10-31T08:53:02;12.73;;;8.97;;
5127;SDS011;2582;48.770;9.190;2022-10-31T08:55:37;9.73;;;7.70;;
5127;SDS011;2582;48.770;9.190;2022-10-31T08:58:04;9.73;;;7.60;;
5127;SDS011;2582;48.770;9.190;2022-10-31T09:00:32;11.13;;;8.37;;
5127;SDS011;2582;48.770;9.190;2022-10-31T09:02:59;11.00;;;7.77;;
5127;SDS011;2582;48.770;9.190;2022-10-31T09:05:27;11.20;;;8.13;;
5127;SDS011;2582;48.770;9.190;2022-10-31T09:08:00;11.73;;;7.27;;
5127;SDS011;2582;48.770;9.190;2022-10-31T09:10:26;10.43;;;7.80;;
5127;SDS011;2582;48.770;9.190;2022-10-31T09:12:59;10.20;;;8.97;;
5127;SDS011;2582;48.770;9.190;2022-10-31T09:15:34;8.70;;;7.60;;
5127;SDS011;2582;48.770;9.190;2022-10-31T09:18:00;10.63;;;8.63;;
5127;SDS011;2582;48.770;9.190;2022-10-31T09:20:27;12.47;;;8.17;;
5127;SDS011;2582;48.770;9.190;2022-10-31T09:23:00;12.70;;;9.47;;
5127;SDS011;2582;48.770;9.190;2022-10-31T09:25:28;10.77;;;8.57;;
5127;SDS011;2582;48.770;9.190;2022-10-31T09:27:57;9.53;;;7.60;;
5127;SDS011;2582;48.770;9.190;2022-10-31T09:30:24;11.40;;;8.23;;
5127;SDS011;2582;48.770;9.190;2022-10-31T09:33:03;9.67;;;7.93;;
5127;SDS011;2582;48.770;9.190;2022-10-31T09:35:31;10.97;;;8.67;;
5127;SDS011;2582;48.770;9.190;2022-10-31T09:37:58;10.37;;;9.03;;
5127;SDS011;2582;48.770;9.190;2022-10-31T09:40:31;10.27;;;7.73;;
5127;SDS011;2582;48.770;9.190;2022-10-31T09:46:10;12.00;;;8.10;;
5127;SDS011;2582;48.770;9.190;2022-10-31T09:51:43;15.70;;;8.67;;
5127;SDS011;2582;48.770;9.190;2022-10-31T09:54:12;10.63;;;7.20;;
5127;SDS011;2582;48.770;9.190;2022-10-31T09:56:43;12.53;;;8.70;;
5127;SDS011;2582;48.770;9.190;2022-10-31T09:59:43;11.97;;;8.40;;
5127;SDS011;2582;48.770;9.190;2022-10-31T10:02:13;11.83;;;9.40;;
5127;SDS011;2582;48.770;9.190;2022-10-31T10:05:17;13.43;;;8.43;;
5127;SDS011;2582;48.770;9.190;2022-10-31T10:13:01;10.33;;;8.40;;
5127;SDS011;2582;48.770;9.190;2022-10-31T10:15:48;14.50;;;8.90;;
5127;SDS011;2582;48.770;9.190;2022-10-31T10:26:53;10.10;;;7.20;;
5127;SDS011;2582;48.770;9.190;2022-10-31T10:32:14;14.37;;;8.37;;
5127;SDS011;2582;48.770;9.190;2022-10-31T10:34:48;12.83;;;7.90;;
5127;SDS011;2582;48.770;9.190;2022-10-31T10:37:38;9.40;;;7.10;;
5127;SDS011;2582;48.770;9.190;2022-10-31T10:40:16;14.17;;;8.43;;
5127;SDS011;2582;48.770;9.190;2022-10-31T10:45:49;12.77;;;7.77;;
5127;SDS011;2582;48.770;9.190;2022-10-31T10:59:28;9.67;;;7.00;;
5127;SDS011;2582;48.770;9.190;2022-10-31T11:01:55;9.77;;;7.23;;
5127;SDS011;2582;48.770;9.190;2022-10-31T11:04:39;8.20;;;7.10;;
5127;SDS011;2582;48.770;9.190;2022-10-31T11:07:09;8.90;;;7.23;;
5127;SDS011;2582;48.770;9.190;2022-10-31T11:09:36;11.77;;;8.30;;
5127;SDS011;2582;48.770;9.190;2022-10-31T11:12:07;8.53;;;7.07;;
5127;SDS011;2582;48.770;9.190;2022-10-31T11:14:44;9.57;;;7.27;;
5127;SDS011;2582;48.770;9.190;2022-10-31T11:17:17;10.03;;;7.40;;
5127;SDS011;2582;48.770;9.190;2022-10-31T11:22:39;15.57;;;8.23;;
5127;SDS011;2582;48.770;9.190;2022-10-31T11:27:44;10.00;;;7.87;;
5127;SDS011;2582;48.770;9.190;2022-10-31T11:30:11;10.10;;;7.33;;
5127;SDS011;2582;48.770;9.190;2022-10-31T11:32:43;10.03;;;7.97;;
5127;SDS011;2582;48.770;9.190;2022-10-31T11:35:16;9.47;;;6.90;;
5127;SDS011;2582;48.770;9.190;2022-10-31T11:37:43;11.53;;;7.30;;
5127;SDS011;2582;48.770;9.190;2022-10-31T11:40:17;12.17;;;7.40;;
5127;SDS011;2582;48.770;9.190;2022-10-31T11:42:47;8.50;;;7.13;;
5127;SDS011;2582;48.770;9.190;2022-10-31T11:45:16;10.77;;;7.93;;
5127;SDS011;2582;48.770;9.190;2022-10-31T11:47:53;15.17;;;9.00;;
5127;SDS011;2582;48.770;9.190;2022-10-31T11:50:37;11.93;;;8.00;;
5127;SDS011;2582;48.770;9.190;2022-10-31T11:53:15;10.73;;;9.10;;
5127;SDS011;2582;48.770;9.190;2022-10-31T11:55:44;11.10;;;8.63;;
5127;SDS011;2582;48.770;9.190;2022-10-31T11:58:23;12.83;;;7.70;;
5127;SDS011;2582;48.770;9.190;2022-10-31T12:00:51;10.80;;;8.23;;
5127;SDS011;2582;48.770;9.190;2022-10-31T12:05:47;10.63;;;8.00;;
5127;SDS011;2582;48.770;9.190;2022-10-31T12:08:37;10.80;;;8.47;;
5127;SDS011;2582;48.770;9.190;2022-10-31T12:24:45;11.67;;;7.40;;
5127;SDS011;2582;48.770;9.190;2022-10-31T12:30:13;11.57;;;8.30;;
5127;SDS011;2582;48.770;9.190;2022-10-31T12:32:52;10.40;;;7.60;;
5127;SDS011;2582;48.770;9.190;2022-10-31T12:41:09;9.70;;;7.27;;
5127;SDS011;2582;48.770;9.190;2022-10-31T12:43:56;11.43;;;7.87;;
5127;SDS011;2582;48.770;9.190;2022-10-31T13:00:35;15.60;;;8.57;;
5127;SDS011;2582;48.770;9.190;2022-10-31T13:05:54;13.13;;;7.50;;
5127;SDS011;2582;48.770;9.190;2022-10-31T13:08:34;10.07;;;8.03;;
5127;SDS011;2582;48.770;9.190;2022-10-31T13:11:19;10.70;;;7.37;;
5127;SDS011;2582;48.770;9.190;2022-10-31T13:16:17;10.70;;;8.17;;
5127;SDS011;2582;48.770;9.190;2022-10-31T13:18:54;10.87;;;8.20;;
5127;SDS011;2582;48.770;9.190;2022-10-31T13:21:28;8.60;;;7.47;;
5127;SDS011;2582;48.770;9.190;2022-10-31T13:24:00;10.60;;;7.97;;
5127;SDS011;2582;48.770;9.190;2022-10-31T13:26:36;11.13;;;7.60;;
5127;SDS011;2582;48.770;9.190;2022-10-31T13:29:11;10.17;;;7.47;;
5127;SDS011;2582;48.770;9.190;2022-10-31T13:31:48;11.00;;;7.27;;
5127;SDS011;2582;48.770;9.190;2022-10-31T13:34:25;12.10;;;8.83;;
5127;SDS011;2582;48.770;9.190;2022-10-31T13:36:54;12.43;;;8.40;;
5127;SDS011;2582;48.770;9.190;2022-10-31T13:42:23;19.13;;;7.77;;
5127;SDS011;2582;48.770;9.190;2022-10-31T13:45:15;15.13;;;8.30;;
5127;SDS011;2582;48.770;9.190;2022-10-31T13:47:42;9.70;;;8.70;;
5127;SDS011;2582;48.770;9.190;2022-10-31T13:52:44;13.57;;;8.07;;
5127;SDS011;2582;48.770;9.190;2022-10-31T13:58:19;12.97;;;8.50;;
5127;SDS011;2582;48.770;9.190;2022-10-31T14:01:05;13.37;;;8.37;;
5127;SDS011;2582;48.770;9.190;2022-10-31T14:03:54;13.70;;;8.80;;
5127;SDS011;2582;48.770;9.190;2022-10-31T14:06:33;10.30;;;8.80;;
5127;SDS011;2582;48.770;9.190;2022-10-31T14:09:17;11.43;;;7.60;;
5127;SDS011;2582;48.770;9.190;2022-10-31T14:11:45;13.97;;;8.30;;
5127;SDS011;2582;48.770;9.190;2022-10-31T14:14:12;11.53;;;8.07;;
5127;SDS011;2582;48.770;9.190;2022-10-31T14:16:39;12.03;;;8.20;;
5127;SDS011;2582;48.770;9.190;2022-10-31T14:19:08;11.30;;;7.63;;
5127;SDS011;2582;48.770;9.190;2022-10-31T14:21:42;12.10;;;8.00;;
5127;SDS011;2582;48.770;9.190;2022-10-31T14:27:00;8.83;;;7.87;;
5127;SDS011;2582;48.770;9.190;2022-10-31T14:29:29;10.60;;;8.70;;
5127;SDS011;2582;48.770;9.190;2022-10-31T14:32:01;14.03;;;8.03;;
5127;SDS011;2582;48.770;9.190;2022-10-31T14:34:41;11.23;;;8.00;;
5127;SDS011;2582;48.770;9.190;2022-10-31T14:37:26;15.10;;;8.20;;
5127;SDS011;2582;48.770;9.190;2022-10-31T14:40:05;14.60;;;9.47;;
5127;SDS011;2582;48.770;9.190;2022-10-31T14:48:52;10.43;;;8.13;;
5127;SDS011;2582;48.770;9.190;2022-10-31T14:51:41;14.40;;;8.43;;
5127;SDS011;2582;48.770;9.190;2022-10-31T14:54:21;7.23;;;6.53;;
5127;SDS011;2582;48.770;9.190;2022-10-31T14:56:59;14.90;;;9.07;;
5127;SDS011;2582;48.770;9.190;2022-10-31T14:59:31;10.60;;;7.67;;
5127;SDS011;2582;48.770;9.190;2022-10-31T15:02:08;11.10;;;8.00;;
5127;SDS011;2582;48.770;9.190;2022-10-31T15:04:55;11.90;;;8.30;;
5127;SDS011;2582;48.770;9.190;2022-10-31T15:07:24;13.07;;;8.57;;
5127;SDS011;2582;48.770;9.190;2022-10-31T15:10:01;10.63;;;7.60;;
5127;SDS011;2582;48.770;9.190;2022-10-31T15:12:33;11.87;;;7.30;;
5127;SDS011;2582;48.770;9.190;2022-10-31T15:17:59;11.93;;;7.90;;
5127;SDS011;2582;48.770;9.190;2022-10-31T15:20:28;8.70;;;7.20;;
5127;SDS011;2582;48.770;9.190;2022-10-31T15:22:56;13.13;;;7.33;;
5127;SDS011;2582;48.770;9.190;2022-10-31T15:25:23;10.13;;;7.63;;
5127;SDS011;2582;48.770;9.190;2022-10-31T15:27:51;11.50;;;7.60;;
5127;SDS011;2582;48.770;9.190;2022-10-31T15:30:19;13.47;;;7.50;;
5127;SDS011;2582;48.770;9.190;2022-10-31T15:32:49;9.97;;;7.97;;
5127;SDS011;2582;48.770;9.190;2022-10-31T15:35:22;12.53;;;6.60;;
5127;SDS011;2582;48.770;9.190;2022-10-31T15:37:49;8.50;;;6.10;;
5127;SDS011;2582;48.770;9.190;2022-10-31T15:40:15;11.53;;;6.43;;
5127;SDS011;2582;48.770;9.190;2022-10-31T15:42:44;10.17;;;6.57;;
5127;SDS011;2582;48.770;9.190;2022-10-31T15:45:19;10.10;;;6.43;;
5127;SDS011;2582;48.770;9.190;2022-10-31T15:48:02;5.47;;;4.80;;
5127;SDS011;2582;48.770;9.190;2022-10-31T15:50:39;15.97;;;6.80;;
5127;SDS011;2582;48.770;9.190;2022-10-31T15:53:06;10.60;;;8.77;;
5127;SDS011;2582;48.770;9.190;2022-10-31T15:56:01;8.30;;;7.33;;
5127;SDS011;2582;48.770;9.190;2022-10-31T15:58:35;9.10;;;6.90;;
5127;SDS011;2582;48.770;9.190;2022-10-31T16:04:01;10.27;;;7.47;;
5127;SDS011;2582;48.770;9.190;2022-10-31T16:07:11;17.03;;;8.23;;
5127;SDS011;2582;48.770;9.190;2022-10-31T16:09:52;8.63;;;6.60;;
5127;SDS011;2582;48.770;9.190;2022-10-31T16:12:20;9.30;;;6.70;;
5127;SDS011;2582;48.770;9.190;2022-10-31T16:14:47;13.70;;;7.63;;
5127;SDS011;2582;48.770;9.190;2022-10-31T16:17:13;11.07;;;6.47;;
5127;SDS011;2582;48.770;9.190;2022-10-31T16:22:21;16.00;;;8.17;;
5127;SDS011;2582;48.770;9.190;2022-10-31T16:27:39;12.40;;;8.27;;
5127;SDS011;2582;48.770;9.190;2022-10-31T16:30:27;10.07;;;7.83;;
5127;SDS011;2582;48.770;9.190;2022-10-31T16:32:57;12.57;;;8.47;;
5127;SDS011;2582;48.770;9.190;2022-10-31T16:37:50;15.60;;;9.53;;
5127;SDS011;2582;48.770;9.190;2022-10-31T16:40:16;14.97;;;9.90;;
5127;SDS011;2582;48.770;9.190;2022-10-31T16:42:42;14.13;;;9.70;;
5127;SDS011;2582;48.770;9.190;2022-10-31T16:45:19;10.83;;;9.17;;
5127;SDS011;2582;48.770;9.190;2022-10-31T16:47:46;12.60;;;9.90;;
5127;SDS011;2582;48.770;9.190;2022-10-31T16:50:14;15.90;;;10.90;;
5127;SDS011;2582;48.770;9.190;2022-10-31T16:52:45;14.77;;;10.50;;
5127;SDS011;2582;48.770;9.190;2022-10-31T16:55:15;17.20;;;10.80;;
5127;SDS011;2582;48.770;9.190;2022-10-31T16:57:43;13.50;;;11.03;;
5127;SDS011;2582;48.770;9.190;2022-10-31T17:00:21;12.63;;;11.13;;
5127;SDS011;2582;48.770;9.190;2022-10-31T17:02:48;15.87;;;13.10;;
5127;SDS011;2582;48.770;9.190;2022-10-31T17:05:16;20.50;;;13.60;;
5127;SDS011;2582;48.770;9.190;2022-10-31T17:07:43;18.60;;;12.60;;
5127;SDS011;2582;48.770;9.190;2022-10-31T17:10:09;16.00;;;11.70;;
5127;SDS011;2582;48.770;9.190;2022-10-31T17:12:36;12.33;;;10.73;;
5127;SDS011;2582;48.770;9.190;2022-10-31T17:15:05;14.73;;;11.47;;
5127;SDS011;2582;48.770;9.190;2022-10-31T17:17:38;12.60;;;10.33;;
5127;SDS011;2582;48.770;9.190;2022-10-31T17:20:10;14.03;;;11.27;;
5127;SDS011;2582;48.770;9.190;2022-10-31T17:22:46;15.30;;;12.50;;
5127;SDS011;2582;48.770;9.190;2022-10-31T17:25:16;19.77;;;13.07;;
5127;SDS011;2582;48.770;9.190;2022-10-31T17:27:43;18.13;;;13.17;;
5127;SDS011;2582;48.770;9.190;2022-10-31T17:30:13;18.30;;;14.23;;
5127;SDS011;2582;48.770;9.190;2022-10-31T17:32:39;23.60;;;17.83;;
5127;SDS011;2582;48.770;9.190;2022-10-31T17:35:06;16.27;;;14.57;;
5127;SDS011;2582;48.770;9.190;2022-10-31T17:37:32;16.20;;;12.97;;
5127;SDS011;2582;48.770;9.190;2022-10-31T17:39:58;16.87;;;12.50;;
5127;SDS011;2582;48.770;9.190;2022-10-31T17:42:23;17.03;;;14.10;;
5127;SDS011;2582;48.770;9.190;2022-10-31T17:44:49;16.80;;;13.20;;
5127;SDS011;2582;48.770;9.190;2022-10-31T17:47:14;18.70;;;15.53;;
5127;SDS011;2582;48.770;9.190;2022-10-31T17:49:40;15.33;;;13.70;;
5127;SDS011;2582;48.770;9.190;2022-10-31T17:52:05;21.70;;;17.13;;